createdAt,value
2023-03-24T00:00:29.737Z,54.7
2023-03-24T00:02:29.855Z,55
2023-03-24T00:04:29.815Z,55.2
2023-03-24T00:06:29.697Z,54.8
2023-03-24T00:08:29.796Z,55.1
2023-03-24T00:10:29.724Z,54.9
2023-03-24T00:11:49.221Z,54.9
2023-03-24T00:13:02.757Z,55.2
2023-03-24T00:14:29.728Z,54.9
2023-03-24T00:16:29.811Z,55.1
2023-03-24T00:18:29.722Z,55.2
2023-03-24T00:20:29.756Z,55.5
2023-03-24T00:22:29.750Z,55.7
2023-03-24T00:24:29.858Z,55.6
2023-03-24T00:26:29.691Z,55.5
2023-03-24T00:28:29.803Z,55.6
2023-03-24T00:30:29.761Z,55.3
2023-03-24T00:32:29.858Z,55.9
2023-03-24T00:34:29.762Z,55.9
2023-03-24T00:36:29.705Z,55.9
2023-03-24T00:38:29.750Z,55.6
2023-03-24T00:40:29.696Z,55.8
2023-03-24T00:42:29.665Z,55.6
2023-03-24T00:44:29.701Z,55.6
2023-03-24T00:46:30.006Z,55.6
2023-03-24T00:48:29.775Z,55.8
2023-03-24T00:50:29.694Z,55.8
2023-03-24T00:52:29.736Z,56.1
2023-03-24T00:54:29.660Z,56.1
2023-03-24T00:56:29.846Z,55.9
2023-03-24T00:58:29.792Z,56.3
2023-03-24T01:00:29.897Z,56
2023-03-24T01:02:29.860Z,56.2
2023-03-24T01:04:29.684Z,56.2
2023-03-24T01:06:29.699Z,55.9
2023-03-24T01:08:29.671Z,56.1
2023-03-24T01:10:29.725Z,56.5
2023-03-24T01:12:29.666Z,56.1
2023-03-24T01:14:29.639Z,56.2
2023-03-24T01:16:51.638Z,56.3
2023-03-24T01:18:29.664Z,56.4
2023-03-24T01:20:29.622Z,56.3
2023-03-24T01:22:29.684Z,56.8
2023-03-24T01:24:29.651Z,57
2023-03-24T01:26:29.650Z,56.7
2023-03-24T01:28:29.618Z,56.9
2023-03-24T01:30:29.669Z,57.4
2023-03-24T01:32:29.591Z,57.2
2023-03-24T01:34:29.675Z,57.1
2023-03-24T01:36:29.637Z,57.2
2023-03-24T01:38:29.648Z,57
2023-03-24T01:40:29.644Z,57
2023-03-24T01:42:29.622Z,57.5
2023-03-24T01:44:29.605Z,57.4
2023-03-24T01:46:29.632Z,57.4
2023-03-24T01:48:29.690Z,57.5
2023-03-24T01:50:29.609Z,57.5
2023-03-24T01:52:29.646Z,57.5
2023-03-24T01:54:29.615Z,57.6
2023-03-24T01:56:29.633Z,57.8
2023-03-24T01:58:29.737Z,58
2023-03-24T02:00:29.662Z,58
2023-03-24T02:02:29.626Z,57.7
2023-03-24T02:04:29.699Z,57.7
2023-03-24T02:06:29.580Z,57.6
2023-03-24T02:08:29.586Z,57.7
2023-03-24T02:10:29.694Z,57.8
2023-03-24T02:12:29.572Z,58.1
2023-03-24T02:14:29.592Z,58.2
2023-03-24T02:16:29.653Z,58.1
2023-03-24T02:18:29.564Z,58.4
2023-03-24T02:20:29.624Z,58.3
2023-03-24T02:22:29.635Z,58.4
2023-03-24T02:24:29.603Z,58.5
2023-03-24T02:26:29.624Z,58.4
2023-03-24T02:28:29.626Z,58.9
2023-03-24T02:30:29.602Z,58.8
2023-03-24T02:32:29.607Z,58.8
2023-03-24T02:34:29.565Z,59.2
2023-03-24T02:36:29.635Z,59
2023-03-24T02:38:29.571Z,58.9
2023-03-24T02:40:29.628Z,58.8
2023-03-24T02:42:29.582Z,59.3
2023-03-24T02:44:29.601Z,59.4
2023-03-24T02:46:29.537Z,58.9
2023-03-24T02:48:29.584Z,58.8
2023-03-24T02:50:29.565Z,59.1
2023-03-24T02:52:29.618Z,59.4
2023-03-24T02:54:29.580Z,59
2023-03-24T02:56:29.514Z,58.9
2023-03-24T02:58:29.520Z,59
2023-03-24T03:00:29.539Z,59.2
2023-03-24T03:02:29.713Z,59.3
2023-03-24T03:04:29.613Z,59.4
2023-03-24T03:06:29.555Z,59.2
2023-03-24T03:08:29.589Z,59.5
2023-03-24T03:10:29.582Z,59.6
2023-03-24T03:11:37.119Z,59.6
2023-03-24T03:14:29.542Z,59.8
2023-03-24T03:16:29.510Z,59.7
2023-03-24T03:18:29.585Z,59.9
2023-03-24T03:20:29.493Z,60.5
2023-03-24T03:22:29.552Z,60.1
2023-03-24T03:24:29.651Z,60.5
2023-03-24T03:26:29.553Z,60.1
2023-03-24T03:28:29.578Z,59.9
2023-03-24T03:30:29.494Z,60
2023-03-24T03:32:29.543Z,60
2023-03-24T03:34:29.651Z,60.5
2023-03-24T03:36:29.663Z,60
2023-03-24T03:38:29.577Z,60.7
2023-03-24T03:40:29.489Z,60.5
2023-03-24T03:42:29.595Z,60.3
2023-03-24T03:44:29.530Z,60.3
2023-03-24T03:46:29.556Z,60.3
2023-03-24T03:48:29.585Z,61.2
2023-03-24T03:50:29.483Z,61.1
2023-03-24T03:52:29.547Z,60.9
2023-03-24T03:54:29.509Z,60.7
2023-03-24T03:56:29.621Z,60.7
2023-03-24T03:58:29.536Z,60.8
2023-03-24T04:00:29.519Z,60.7
2023-03-24T04:01:47.508Z,60.7
2023-03-24T04:04:29.502Z,60.6
2023-03-24T04:06:29.525Z,60.7
2023-03-24T04:08:29.512Z,61.2
2023-03-24T04:10:29.476Z,60.9
2023-03-24T04:12:29.525Z,60.9
2023-03-24T04:14:29.509Z,61.6
2023-03-24T04:16:29.726Z,61
2023-03-24T04:18:29.462Z,61
2023-03-24T04:20:10.477Z,61
2023-03-24T04:22:29.608Z,61.1
2023-03-24T04:24:29.484Z,61.4
2023-03-24T04:26:29.487Z,61.1
2023-03-24T04:28:29.435Z,61.4
2023-03-24T04:30:29.477Z,61.2
2023-03-24T04:32:29.559Z,61.5
2023-03-24T04:34:40.267Z,61.3
2023-03-24T04:36:29.455Z,61.3
2023-03-24T04:38:51.791Z,61.2
2023-03-24T04:40:29.435Z,61.8
2023-03-24T04:42:29.551Z,61.5
2023-03-24T04:44:29.446Z,61.6
2023-03-24T04:46:29.599Z,61.7
2023-03-24T04:48:29.488Z,61.9
2023-03-24T04:50:29.474Z,62.2
2023-03-24T04:53:15.116Z,62.1
2023-03-24T04:54:29.435Z,62.5
2023-03-24T04:56:29.479Z,62.7
2023-03-24T04:58:29.488Z,63.4
2023-03-24T05:00:29.375Z,62.7
2023-03-24T05:02:29.411Z,62.9
2023-03-24T05:04:29.462Z,62.7
2023-03-24T05:06:29.490Z,62.9
2023-03-24T05:08:10.963Z,62.9
2023-03-24T05:11:12.082Z,63.2
2023-03-24T05:12:29.395Z,63.2
2023-03-24T05:14:29.376Z,63.7
2023-03-24T05:15:59.260Z,63.7
2023-03-24T05:18:29.508Z,63.6
2023-03-24T05:20:29.410Z,63.7
2023-03-24T05:22:29.394Z,63.3
2023-03-24T05:24:29.469Z,63.6
2023-03-24T05:26:30.783Z,63.9
2023-03-24T05:28:29.468Z,63.9
2023-03-24T05:30:29.457Z,64.1
2023-03-24T05:31:38.255Z,64.1
2023-03-24T05:34:29.481Z,64.6
2023-03-24T05:36:29.410Z,64.2
2023-03-24T05:38:29.350Z,63.9
2023-03-24T05:40:29.463Z,64.3
2023-03-24T05:42:27.767Z,64.3
2023-03-24T05:43:41.854Z,64.4
2023-03-24T05:46:29.376Z,64
2023-03-24T05:48:29.326Z,64.2
2023-03-24T05:50:29.364Z,64.4
2023-03-24T05:52:29.421Z,64.1
2023-03-24T05:54:29.935Z,64.7
2023-03-24T05:56:29.419Z,64.3
2023-03-24T05:58:29.342Z,63.9
2023-03-24T06:00:29.401Z,64.1
2023-03-24T06:02:29.549Z,64.1
2023-03-24T06:04:39.051Z,65
2023-03-24T06:06:29.306Z,64.5
2023-03-24T06:08:29.396Z,64
2023-03-24T06:10:29.350Z,64.4
2023-03-24T06:12:29.359Z,64.2
2023-03-24T06:14:29.357Z,64.1
2023-03-24T06:16:29.418Z,64.3
2023-03-24T06:18:29.400Z,64.3
2023-03-24T06:19:11.563Z,64.3
2023-03-24T06:20:29.409Z,64
2023-03-24T06:22:29.361Z,64.4
2023-03-24T06:24:29.324Z,64.4
2023-03-24T06:26:29.439Z,64.3
2023-03-24T06:28:29.317Z,64.1
2023-03-24T06:30:29.279Z,64.1
2023-03-24T06:32:29.334Z,64.5
2023-03-24T06:34:29.436Z,64.4
2023-03-24T06:36:29.330Z,64.8
2023-03-24T06:38:29.360Z,64.7
2023-03-24T06:40:29.314Z,64.5
2023-03-24T06:44:29.281Z,65.1
2023-03-24T06:46:29.343Z,64.7
2023-03-24T06:48:29.272Z,64.6
2023-03-24T06:50:29.466Z,65
2023-03-24T06:52:29.257Z,64.7
2023-03-24T06:54:29.235Z,64.6
2023-03-24T06:56:29.388Z,64.7
2023-03-24T06:58:29.349Z,64.9
2023-03-24T07:00:29.307Z,65
2023-03-24T07:02:29.389Z,65.5
2023-03-24T07:04:29.303Z,64.9
2023-03-24T07:07:05.546Z,64.9
2023-03-24T07:08:37.897Z,64.9
2023-03-24T07:10:29.339Z,65.6
2023-03-24T07:12:29.254Z,65.2
2023-03-24T07:14:29.316Z,65.9
2023-03-24T07:16:29.334Z,65.5
2023-03-24T07:18:29.367Z,66
2023-03-24T07:20:29.322Z,66
2023-03-24T07:22:29.383Z,65.7
2023-03-24T07:24:31.289Z,65.9
2023-03-24T07:26:29.259Z,66.3
2023-03-24T07:28:29.197Z,65.7
2023-03-24T07:30:39.636Z,66.3
2023-03-24T07:32:29.207Z,66.4
2023-03-24T07:34:29.249Z,66
2023-03-24T07:36:29.252Z,66.2
2023-03-24T07:38:29.219Z,66
2023-03-24T07:40:28.608Z,66
2023-03-24T07:42:00.043Z,66
2023-03-24T07:43:12.748Z,66.2
2023-03-24T07:44:29.181Z,66.6
2023-03-24T07:46:29.235Z,66.8
2023-03-24T07:48:29.193Z,66.1
2023-03-24T07:49:46.202Z,66.1
2023-03-24T07:52:29.192Z,66.3
2023-03-24T07:54:29.249Z,66.5
2023-03-24T07:56:29.267Z,66.7
2023-03-24T07:58:29.169Z,66.4
2023-03-24T08:00:29.575Z,66.4
2023-03-24T08:02:29.283Z,66.3
2023-03-24T08:04:29.229Z,66.4
2023-03-24T08:07:02.295Z,66.7
2023-03-24T08:08:29.248Z,66.6
2023-03-24T08:10:29.184Z,66.8
2023-03-24T08:12:29.175Z,66.6
2023-03-24T08:14:29.149Z,66.6
2023-03-24T08:15:12.183Z,66.6
2023-03-24T08:16:29.214Z,66.9
2023-03-24T08:18:29.187Z,67.8
2023-03-24T08:20:29.165Z,67.3
2023-03-24T08:22:29.200Z,66.9
2023-03-24T08:24:29.214Z,67.5
2023-03-24T08:26:08.914Z,67.5
2023-03-24T08:27:21.615Z,67.8
2023-03-24T08:28:29.213Z,67.3
2023-03-24T08:30:29.193Z,67.2
2023-03-24T08:32:29.289Z,67.3
2023-03-24T08:34:29.198Z,67.3
2023-03-24T08:36:29.217Z,67.1
2023-03-24T08:38:29.188Z,67.1
2023-03-24T08:40:29.161Z,67.5
2023-03-24T08:41:53.366Z,67.5
2023-03-24T08:42:29.106Z,67.4
2023-03-24T08:44:30.603Z,67.2
2023-03-24T08:46:29.226Z,67.3
2023-03-24T08:48:10.693Z,67.3
2023-03-24T08:48:29.104Z,67
2023-03-24T08:49:13.178Z,67
2023-03-24T08:50:29.116Z,66.8
2023-03-24T08:52:15.845Z,66.8
2023-03-24T08:54:29.204Z,67
2023-03-24T08:56:29.204Z,67.2
2023-03-24T08:58:29.113Z,67.6
2023-03-24T09:00:29.337Z,67.3
2023-03-24T09:02:29.224Z,67.1
2023-03-24T09:04:29.157Z,67.3
2023-03-24T09:07:21.110Z,67.5
2023-03-24T09:08:29.269Z,67
2023-03-24T09:10:31.456Z,67.1
2023-03-24T09:12:29.196Z,67
2023-03-24T09:14:29.112Z,67.2
2023-03-24T09:16:38.157Z,66.9
2023-03-24T09:18:29.107Z,67
2023-03-24T09:20:29.102Z,67.1
2023-03-24T09:22:29.123Z,67.4
2023-03-24T09:24:05.378Z,67.4
2023-03-24T09:26:29.183Z,67.6
2023-03-24T09:28:29.183Z,67.2
2023-03-24T09:30:30.619Z,67.6
2023-03-24T09:32:29.149Z,67.4
2023-03-24T09:34:29.069Z,67.5
2023-03-24T09:36:31.068Z,67.6
2023-03-24T09:38:29.111Z,67.6
2023-03-24T09:40:29.166Z,67.9
2023-03-24T09:42:29.116Z,67.6
2023-03-24T09:44:29.111Z,67.7
2023-03-24T09:46:29.120Z,67.7
2023-03-24T09:50:29.052Z,67.7
2023-03-24T09:52:18.171Z,67.7
2023-03-24T09:54:29.126Z,68.4
2023-03-24T09:56:29.109Z,68
2023-03-24T09:58:29.074Z,68
2023-03-24T10:00:29.166Z,68.1
2023-03-24T10:02:29.111Z,68
2023-03-24T10:04:29.178Z,67.9
2023-03-24T10:06:29.184Z,68.5
2023-03-24T10:08:30.752Z,68.1
2023-03-24T10:10:29.089Z,68.3
2023-03-24T10:12:29.051Z,68.2
2023-03-24T10:14:29.031Z,69.3
2023-03-24T10:16:29.046Z,68.9
2023-03-24T10:18:29.060Z,68.4
2023-03-24T10:20:29.055Z,69
2023-03-24T10:22:29.040Z,69
2023-03-24T10:24:29.084Z,68.6
2023-03-24T10:26:29.071Z,68.9
2023-03-24T10:27:33.425Z,68.9
2023-03-24T10:30:28.998Z,68.5
2023-03-24T10:32:29.115Z,68.8
2023-03-24T10:34:29.103Z,68.7
2023-03-24T10:36:29.153Z,68.8
2023-03-24T10:38:29.182Z,69.1
2023-03-24T10:40:33.151Z,69.5
2023-03-24T10:42:29.073Z,69.8
2023-03-24T10:44:29.059Z,69.7
2023-03-24T10:46:29.064Z,69.6
2023-03-24T10:48:29.010Z,69.4
2023-03-24T10:50:29.072Z,69.4
2023-03-24T10:52:29.058Z,69.2
2023-03-24T10:54:29.049Z,69.7
2023-03-24T10:56:29.061Z,70
2023-03-24T10:58:03.704Z,70
2023-03-24T11:00:28.995Z,69.2
2023-03-24T11:02:29.223Z,69.6
2023-03-24T11:04:58.508Z,69.5
2023-03-24T11:06:29.038Z,69.6
2023-03-24T11:08:29.080Z,69.5
2023-03-24T11:10:28.955Z,69.3
2023-03-24T11:12:28.968Z,69.5
2023-03-24T11:14:29.059Z,69.3
2023-03-24T11:16:29.085Z,69.3
2023-03-24T11:18:50.754Z,69.5
2023-03-24T11:20:29.014Z,70.2
2023-03-24T11:22:28.998Z,69.8
2023-03-24T11:24:28.971Z,69.9
2023-03-24T11:26:29.029Z,69.4
2023-03-24T11:28:29.018Z,69.2
2023-03-24T11:30:28.992Z,69.3
2023-03-24T11:32:29.054Z,69.6
2023-03-24T11:34:28.950Z,69.7
2023-03-24T11:36:29.052Z,69.5
2023-03-24T11:38:28.984Z,69.3
2023-03-24T11:40:29.100Z,69.2
2023-03-24T11:42:28.985Z,69.4
2023-03-24T11:44:29.050Z,69.3
2023-03-24T11:46:29.036Z,69
2023-03-24T11:48:28.962Z,68.8
2023-03-24T11:50:28.924Z,68.9
2023-03-24T11:52:29.033Z,68.9
2023-03-24T11:54:30.585Z,69.4
2023-03-24T11:56:28.988Z,69.4
2023-03-24T11:58:28.962Z,68.8
2023-03-24T12:00:29.875Z,68.9
2023-03-24T12:02:29.071Z,68.8
2023-03-24T12:04:29.010Z,68.7
2023-03-24T12:06:28.982Z,68.6
2023-03-24T12:08:29.003Z,68.4
2023-03-24T12:09:52.582Z,68.4
2023-03-24T12:12:28.980Z,68.4
2023-03-24T12:14:28.989Z,68.4
2023-03-24T12:16:28.968Z,68.4
2023-03-24T12:18:28.925Z,67.9
2023-03-24T12:20:28.940Z,67.4
2023-03-24T12:22:28.902Z,67.5
2023-03-24T12:24:28.963Z,67.7
2023-03-24T12:26:28.952Z,67.5
2023-03-24T12:28:28.894Z,66.8
2023-03-24T12:30:28.968Z,66.7
2023-03-24T12:32:28.959Z,66.6
2023-03-24T12:34:29.005Z,66.1
2023-03-24T12:35:43.708Z,66.1
2023-03-24T12:38:29.033Z,66.2
2023-03-24T12:40:28.982Z,66.2
2023-03-24T12:42:28.931Z,66.2
2023-03-24T12:44:28.927Z,66.1
2023-03-24T12:46:37.162Z,65.3
2023-03-24T12:48:43.314Z,65.2
2023-03-24T12:50:28.891Z,65.3
2023-03-24T12:51:45.426Z,65.3
2023-03-24T12:54:29.020Z,64.9
2023-03-24T12:56:28.876Z,64.8
2023-03-24T12:58:50.309Z,64.8
2023-03-24T13:00:28.875Z,64.9
2023-03-24T13:02:29.049Z,64
2023-03-24T13:04:28.960Z,63.8
2023-03-24T13:06:28.917Z,63.9
2023-03-24T13:08:28.859Z,63.2
2023-03-24T13:10:28.948Z,62
2023-03-24T13:12:28.960Z,62.3
2023-03-24T13:14:28.862Z,61.9
2023-03-24T13:16:28.892Z,62.6
2023-03-24T13:18:28.915Z,62.1
2023-03-24T13:20:28.905Z,61.7
2023-03-24T13:22:28.883Z,61.8
2023-03-24T13:24:28.877Z,61.7
2023-03-24T13:26:28.938Z,61.6
2023-03-24T13:28:28.883Z,60.5
2023-03-24T13:30:28.870Z,60.9
2023-03-24T13:32:28.853Z,61.4
2023-03-24T13:34:28.842Z,61.2
2023-03-24T13:36:28.929Z,60.7
2023-03-24T13:37:04.975Z,60.7
2023-03-24T13:38:28.936Z,60.4
2023-03-24T13:40:28.810Z,60.7
2023-03-24T13:42:29.052Z,60.1
2023-03-24T13:44:28.877Z,59.4
2023-03-24T13:46:28.918Z,58.7
2023-03-24T13:48:28.857Z,59.3
2023-03-24T13:50:28.943Z,59.7
2023-03-24T13:52:28.939Z,59.2
2023-03-24T13:54:28.793Z,59.2
2023-03-24T13:56:28.991Z,59.5
2023-03-24T13:58:28.887Z,59.8
2023-03-24T14:00:28.838Z,59.2
2023-03-24T14:02:29.025Z,59.6
2023-03-24T14:04:28.871Z,58.8
2023-03-24T14:06:28.909Z,58.9
2023-03-24T14:08:28.804Z,58.3
2023-03-24T14:10:28.802Z,57.7
2023-03-24T14:12:28.795Z,57.4
2023-03-24T14:14:28.870Z,57.6
2023-03-24T14:16:28.829Z,57.8
2023-03-24T14:18:28.872Z,58.1
2023-03-24T14:20:28.959Z,57.6
2023-03-24T14:22:28.802Z,57.2
2023-03-24T14:24:28.940Z,57.1
2023-03-24T14:26:28.830Z,57.3
2023-03-24T14:28:28.857Z,57.1
2023-03-24T14:30:28.792Z,57.3
2023-03-24T14:32:28.823Z,57.1
2023-03-24T14:34:28.783Z,56.6
2023-03-24T14:36:28.829Z,56.1
2023-03-24T14:38:28.888Z,56.2
2023-03-24T14:40:29.618Z,56.9
2023-03-24T14:41:58.706Z,56.9
2023-03-24T14:43:44.451Z,56.5
2023-03-24T14:46:28.847Z,55.9
2023-03-24T14:48:28.759Z,55.7
2023-03-24T14:50:28.782Z,56.4
2023-03-24T14:52:28.732Z,55.4
2023-03-24T14:54:28.736Z,55.4
2023-03-24T14:56:28.818Z,55
2023-03-24T14:58:28.760Z,55
2023-03-24T15:00:28.859Z,55.7
2023-03-24T15:01:47.538Z,55.7
2023-03-24T15:02:28.740Z,55.2
2023-03-24T15:04:28.833Z,55.9
2023-03-24T15:06:28.800Z,55
2023-03-24T15:08:28.765Z,55.9
2023-03-24T15:10:28.829Z,55.4
2023-03-24T15:12:28.787Z,54.2
2023-03-24T15:14:28.802Z,55.3
2023-03-24T15:16:28.847Z,54.6
2023-03-24T15:18:28.770Z,55.2
2023-03-24T15:20:28.746Z,54.1
2023-03-24T15:22:28.704Z,54.6
2023-03-24T15:23:44.781Z,54.6
2023-03-24T15:26:28.885Z,53.8
2023-03-24T15:28:28.767Z,53.2
2023-03-24T15:30:28.810Z,52.6
2023-03-24T15:32:28.837Z,53.3
2023-03-24T15:34:28.810Z,53.8
2023-03-24T15:36:28.713Z,53.4
2023-03-24T15:38:28.756Z,52.9
2023-03-24T15:40:28.730Z,52.5
2023-03-24T15:42:28.728Z,52.2
2023-03-24T15:44:28.767Z,51.7
2023-03-24T15:46:28.830Z,52.5
2023-03-24T15:48:09.685Z,52.5
2023-03-24T15:48:28.746Z,52.8
2023-03-24T15:51:17.190Z,52.4
2023-03-24T15:52:28.760Z,52.4
2023-03-24T15:54:28.665Z,52.8
2023-03-24T15:56:28.702Z,52.2
2023-03-24T15:58:28.841Z,51.9
2023-03-24T16:00:28.722Z,51.7
2023-03-24T16:02:28.792Z,52.4
2023-03-24T16:04:28.785Z,52.1
2023-03-24T16:06:28.686Z,51.2
2023-03-24T16:08:28.685Z,50.9
2023-03-24T16:10:28.720Z,50.5
2023-03-24T16:12:28.627Z,51.3
2023-03-24T16:14:47.755Z,50.5
2023-03-24T16:16:29.705Z,50.6
2023-03-24T16:18:28.631Z,49.9
2023-03-24T16:20:29.403Z,49.6
2023-03-24T16:22:28.727Z,49.3
2023-03-24T16:24:28.689Z,49.7
2023-03-24T16:26:28.652Z,48.4
2023-03-24T16:28:28.643Z,48.6
2023-03-24T16:30:53.607Z,47.5
2023-03-24T16:32:28.724Z,47
2023-03-24T16:34:28.621Z,47.4
2023-03-24T16:36:28.706Z,47.3
2023-03-24T16:38:28.775Z,46.9
2023-03-24T16:40:28.685Z,47.1
2023-03-24T16:42:28.628Z,46
2023-03-24T16:44:28.632Z,47.6
2023-03-24T16:46:45.341Z,46.8
2023-03-24T16:48:28.632Z,47.2
2023-03-24T16:50:28.715Z,46.4
2023-03-24T16:52:28.625Z,47.7
2023-03-24T16:54:28.612Z,47
2023-03-24T16:56:28.708Z,45.9
2023-03-24T16:58:28.617Z,46.3
2023-03-24T17:00:28.599Z,45.3
2023-03-24T17:02:28.638Z,45.7
2023-03-24T17:04:28.626Z,46.3
2023-03-24T17:05:23.268Z,46.3
2023-03-24T17:06:28.604Z,44.7
2023-03-24T17:08:28.596Z,44.9
2023-03-24T17:10:08.907Z,44.9
2023-03-24T17:12:28.612Z,44.3
2023-03-24T17:14:28.589Z,45.6
2023-03-24T17:16:28.691Z,45.3
2023-03-24T17:18:28.564Z,44.9
2023-03-24T17:20:28.611Z,44.7
2023-03-24T17:22:28.572Z,43.7
2023-03-24T17:24:28.592Z,43.6
2023-03-24T17:26:30.323Z,44.1
2023-03-24T17:28:45.609Z,42.8
2023-03-24T17:30:28.549Z,42.4
2023-03-24T17:32:28.613Z,43.5
2023-03-24T17:34:28.652Z,41.8
2023-03-24T17:36:28.586Z,41.7
2023-03-24T17:38:28.553Z,42.5
2023-03-24T17:40:28.578Z,43
2023-03-24T17:42:28.644Z,43.6
2023-03-24T17:44:35.223Z,43.6
2023-03-24T17:46:28.635Z,44.4
2023-03-24T17:47:56.320Z,44.4
2023-03-24T17:50:28.542Z,45
2023-03-24T17:52:28.596Z,45.6
2023-03-24T17:54:28.651Z,44.6
2023-03-24T17:56:28.670Z,45.2
2023-03-24T17:58:28.586Z,45.7
2023-03-24T18:00:28.739Z,45
2023-03-24T18:02:28.681Z,45.6
2023-03-24T18:04:01.993Z,45.6
2023-03-24T18:04:28.693Z,45.4
2023-03-24T18:06:28.628Z,45.7
2023-03-24T18:08:28.637Z,46.6
2023-03-24T18:10:28.582Z,47.1
2023-03-24T18:12:28.494Z,47.5
2023-03-24T18:14:41.396Z,48.1
2023-03-24T18:16:28.634Z,49.2
2023-03-24T18:18:28.576Z,49.5
2023-03-24T18:20:28.529Z,50
2023-03-24T18:22:28.516Z,50.3
2023-03-24T18:24:08.949Z,50.3
2023-03-24T18:26:28.538Z,51.2
2023-03-24T18:28:40.180Z,51.5
2023-03-24T18:30:28.521Z,51.7
2023-03-24T18:32:28.585Z,51.6
2023-03-24T18:34:28.497Z,51.4
2023-03-24T18:36:28.483Z,52.2
2023-03-24T18:38:28.526Z,52.1
2023-03-24T18:40:17.390Z,52.1
2023-03-24T18:40:32.160Z,51.5
2023-03-24T18:42:28.548Z,51.8
2023-03-24T18:44:28.573Z,51.7
2023-03-24T18:45:53.580Z,51.7
2023-03-24T18:46:28.521Z,51.1
2023-03-24T18:48:28.513Z,52.2
2023-03-24T18:50:28.485Z,52
2023-03-24T18:52:28.501Z,52.5
2023-03-24T18:54:28.461Z,52.3
2023-03-24T18:56:28.597Z,52.3
2023-03-24T18:58:28.474Z,52.4
2023-03-24T19:00:59.726Z,52.8
2023-03-24T19:02:28.566Z,52.8
2023-03-24T19:04:28.453Z,52.6
2023-03-24T19:06:28.469Z,53.1
2023-03-24T19:08:28.528Z,53.1
2023-03-24T19:10:28.551Z,53.8
2023-03-24T19:12:28.487Z,53
2023-03-24T19:14:28.508Z,53.1
2023-03-24T19:16:28.514Z,52.8
2023-03-24T19:18:28.449Z,52.8
2023-03-24T19:20:28.447Z,52.7
2023-03-24T19:22:28.505Z,52.6
2023-03-24T19:24:28.497Z,52.6
2023-03-24T19:26:28.435Z,52.8
2023-03-24T19:28:28.534Z,53
2023-03-24T19:30:54.338Z,52.9
2023-03-24T19:32:28.480Z,52.8
2023-03-24T19:34:28.505Z,52.7
2023-03-24T19:36:28.430Z,52.8
2023-03-24T19:38:28.414Z,52.7
2023-03-24T19:40:28.424Z,52.7
2023-03-24T19:41:12.141Z,52.7
2023-03-24T19:42:28.432Z,53
2023-03-24T19:44:28.424Z,53
2023-03-24T19:46:28.536Z,52.4
2023-03-24T19:48:25.282Z,52.4
2023-03-24T19:50:28.507Z,52.6
2023-03-24T19:52:28.415Z,52.9
2023-03-24T19:54:28.459Z,53.1
2023-03-24T19:56:28.452Z,52.8
2023-03-24T19:58:28.428Z,52.8
2023-03-24T20:00:28.454Z,52.6
2023-03-24T20:02:28.578Z,53
2023-03-24T20:04:28.458Z,52.6
2023-03-24T20:06:28.442Z,52.6
2023-03-24T20:07:46.757Z,52.6
2023-03-24T20:10:28.444Z,52.8
2023-03-24T20:12:28.469Z,52.7
2023-03-24T20:14:28.366Z,52.1
2023-03-24T20:16:28.436Z,52.5
2023-03-24T20:18:28.419Z,52.6
2023-03-24T20:20:28.378Z,52.7
2023-03-24T20:22:39.152Z,52.8
2023-03-24T20:24:28.363Z,51.7
2023-03-24T20:26:28.403Z,51.9
2023-03-24T20:28:28.373Z,52
2023-03-24T20:30:28.368Z,52.1
2023-03-24T20:32:28.400Z,51.9
2023-03-24T20:33:48.706Z,51.9
2023-03-24T20:36:28.372Z,52.3
2023-03-24T20:38:28.421Z,52.9
2023-03-24T20:40:28.379Z,52.7
2023-03-24T20:42:28.328Z,53.2
2023-03-24T20:44:28.371Z,53.1
2023-03-24T20:46:28.385Z,53.2
2023-03-24T20:48:28.385Z,53.1
2023-03-24T20:50:28.332Z,52.9
2023-03-24T20:52:28.349Z,52.5
2023-03-24T20:54:28.371Z,53
2023-03-24T20:56:28.389Z,53.2
2023-03-24T20:58:28.317Z,53.5
2023-03-24T21:00:29.699Z,53.1
2023-03-24T21:02:28.511Z,53.3
2023-03-24T21:04:28.336Z,53
2023-03-24T21:06:28.340Z,53.3
2023-03-24T21:08:28.348Z,53.4
2023-03-24T21:10:28.333Z,52.8
2023-03-24T21:12:28.364Z,51.5
2023-03-24T21:13:37.139Z,51.5
2023-03-24T21:16:28.389Z,52.6
2023-03-24T21:18:28.305Z,52.4
2023-03-24T21:20:28.450Z,51.7
2023-03-24T21:22:52.136Z,52.4
2023-03-24T21:24:28.410Z,52.6
2023-03-24T21:26:30.277Z,52.6
2023-03-24T21:28:28.317Z,52.8
2023-03-24T21:30:28.320Z,52.9
2023-03-24T21:32:28.357Z,53.1
2023-03-24T21:34:28.322Z,53.3
2023-03-24T21:36:05.430Z,53.3
2023-03-24T21:38:28.309Z,53.7
2023-03-24T21:40:28.315Z,53.7
2023-03-24T21:42:28.294Z,53.7
2023-03-24T21:43:54.016Z,53.7
2023-03-24T21:46:28.284Z,53.9
2023-03-24T21:48:28.368Z,54.1
2023-03-24T21:50:28.273Z,54
2023-03-24T21:51:10.116Z,54
2023-03-24T21:52:28.255Z,53.9
2023-03-24T21:54:28.304Z,54.6
2023-03-24T21:56:28.341Z,54.2
2023-03-24T21:58:28.283Z,54.4
2023-03-24T22:00:28.318Z,54.4
2023-03-24T22:02:28.314Z,54.6
2023-03-24T22:04:28.297Z,54.8
2023-03-24T22:06:28.258Z,55.3
2023-03-24T22:08:28.280Z,54.9
2023-03-24T22:10:28.280Z,54.7
2023-03-24T22:12:28.247Z,54.7
2023-03-24T22:14:28.298Z,54.4
2023-03-24T22:16:28.285Z,54.8
2023-03-24T22:18:28.230Z,54.7
2023-03-24T22:20:28.445Z,54.8
2023-03-24T22:22:28.279Z,55
2023-03-24T22:24:28.227Z,55
2023-03-24T22:26:28.280Z,55.1
2023-03-24T22:28:28.248Z,55.1
2023-03-24T22:30:28.233Z,55.1
2023-03-24T22:32:28.370Z,55.2
2023-03-24T22:34:28.235Z,55.1
2023-03-24T22:36:28.392Z,55.3
2023-03-24T22:38:28.298Z,55.5
2023-03-24T22:40:28.256Z,55.6
2023-03-24T22:42:28.256Z,55.9
2023-03-24T22:44:28.626Z,55.8
2023-03-24T22:46:28.263Z,55.9
2023-03-24T22:48:28.252Z,56.1
2023-03-24T22:50:28.321Z,56
2023-03-24T22:52:34.148Z,56.1
2023-03-24T22:54:28.212Z,56.3
2023-03-24T22:56:28.273Z,56.5
2023-03-24T22:58:28.218Z,56.5
2023-03-24T23:00:29.848Z,56.3
2023-03-24T23:02:28.288Z,56.5
2023-03-24T23:04:28.279Z,56.4
2023-03-24T23:06:28.223Z,56.4
2023-03-24T23:08:28.215Z,56.6
2023-03-24T23:10:28.240Z,56.5
2023-03-24T23:12:28.220Z,56.7
2023-03-24T23:14:28.853Z,56.8
2023-03-24T23:16:28.397Z,57
2023-03-24T23:18:28.192Z,57
2023-03-24T23:20:28.392Z,57
2023-03-24T23:22:28.227Z,57.1
2023-03-24T23:24:28.259Z,57.1
2023-03-24T23:26:28.260Z,57.4
2023-03-24T23:28:28.266Z,57.3
2023-03-24T23:30:28.203Z,57.3
2023-03-24T23:32:34.998Z,57.5
2023-03-24T23:34:28.217Z,57.7
2023-03-24T23:36:28.438Z,57.8
2023-03-24T23:38:28.203Z,58.2
2023-03-24T23:40:28.174Z,58.2
2023-03-24T23:42:28.210Z,58.8
2023-03-24T23:44:28.327Z,58.3
2023-03-24T23:46:28.172Z,58.5
2023-03-24T23:48:28.183Z,59.2
2023-03-24T23:50:28.171Z,58.7
2023-03-24T23:52:28.249Z,59.2
2023-03-24T23:54:28.210Z,59.3
2023-03-24T23:56:28.189Z,59.2
2023-03-24T23:58:28.159Z,59.9
